Time;durP1;ratioP1;P1;durP2;ratioP2;P2;SDS_P1;SDS_P2;PMS_P1;PMS_P2;Temp;Humidity;BMP_temperature;BMP_pressure;BME280_temperature;BME280_humidity;BME280_pressure;Samples;Min_cycle;Max_cycle;Signal;HPM_P1;HPM_P2
2023/07/07 00:04:59;;;;;;;32.30;18.80;;;;;;;14.26;67.72;99025.69;437798;1253;97942;-43
2023/07/07 00:15:09;;;;;;;26.00;14.60;;;;;;;14.03;68.12;99025.08;436088;1253;448280;-42
2023/07/07 00:25:16;;;;;;;21.60;13.60;;;;;;;13.97;68.42;99028.66;436330;1253;107274;-43
2023/07/07 00:35:23;;;;;;;26.30;13.20;;;;;;;13.91;68.74;99034.98;436504;1253;97979;-42
2023/07/07 00:45:29;;;;;;;24.70;11.30;;;;;;;13.69;68.92;99035.25;435634;1252;106936;-43
2023/07/07 00:55:34;;;;;;;24.00;14.90;;;;;;;13.54;69.70;99038.23;435517;1262;97327;-44
2023/07/07 01:16:09;;;;;;;19.00;12.40;;;;;;;13.48;70.40;99041.10;433991;1256;108434;-41
2023/07/07 01:26:22;;;;;;;28.30;14.60;;;;;;;13.47;70.51;99039.96;434031;1261;97977;-41
2023/07/07 01:36:28;;;;;;;29.50;17.70;;;;;;;13.34;70.85;99041.00;433932;1260;107608;-42
2023/07/07 01:46:42;;;;;;;21.20;15.20;;;;;;;13.24;71.22;99047.02;433804;1260;97923;-43
2023/07/07 01:56:52;;;;;;;30.80;14.10;;;;;;;13.25;71.51;99054.95;433976;1260;110021;-42
2023/07/07 02:06:59;;;;;;;23.80;14.90;;;;;;;13.12;71.62;99056.05;433830;1257;107129;-42
2023/07/07 02:17:06;;;;;;;19.90;12.20;;;;;;;13.22;72.14;99057.45;433859;1261;96678;-43
2023/07/07 02:27:13;;;;;;;24.20;13.30;;;;;;;13.23;71.81;99063.73;433930;1258;108337;-43
2023/07/07 02:37:21;;;;;;;25.20;13.60;;;;;;;13.11;72.01;99069.69;433815;1261;96647;-43
2023/07/07 02:47:28;;;;;;;21.90;13.30;;;;;;;12.96;72.15;99073.84;433965;1257;111689;-43
2023/07/07 02:57:36;;;;;;;22.60;12.20;;;;;;;12.95;72.29;99078.70;434005;1260;107983;-43
2023/07/07 03:07:43;;;;;;;21.10;11.30;;;;;;;13.00;72.27;99086.29;433958;1257;97909;-43
2023/07/07 03:17:50;;;;;;;17.90;11.30;;;;;;;13.13;72.49;99090.91;434001;1261;108602;-42
2023/07/07 03:27:57;;;;;;;23.50;13.00;;;;;;;14.26;72.25;99091.33;434047;1258;98033;-43
2023/07/07 03:48:10;;;;;;;17.20;11.60;;;;;;;17.75;69.75;99096.69;433947;1259;108590;-41
2023/07/07 03:58:17;;;;;;;19.60;11.70;;;;;;;19.28;68.06;99103.61;434061;1257;97899;-43
2023/07/07 04:08:24;;;;;;;20.20;11.30;;;;;;;20.67;66.21;99105.80;433935;1258;108996;-44
2023/07/07 04:18:33;;;;;;;16.70;9.50;;;;;;;22.42;64.28;99119.35;434000;1257;108290;-42
2023/07/07 04:28:41;;;;;;;23.80;10.70;;;;;;;23.64;62.08;99123.66;434096;1258;97488;-42
2023/07/07 04:38:49;;;;;;;22.20;10.60;;;;;;;24.10;60.35;99123.77;434038;1261;110970;-41
2023/07/07 04:59:03;;;;;;;10.30;7.90;;;;;;;25.80;57.93;99144.82;434093;1258;118340;-42
2023/07/07 05:09:12;;;;;;;12.60;7.00;;;;;;;26.06;55.47;99150.87;433890;1261;108756;-44
2023/07/07 05:19:20;;;;;;;9.40;7.50;;;;;;;24.86;54.31;99152.88;434047;1261;96621;-42
2023/07/07 05:29:25;;;;;;;;;;;;;;;22.75;55.02;99156.92;434135;1258;109530;-42
2023/07/07 05:39:32;;;;;;;13.80;7.70;;;;;;;23.03;56.06;99153.46;433999;1261;106785;-41
2023/07/07 05:49:39;;;;;;;8.30;5.90;;;;;;;23.65;54.85;99154.16;434050;1260;97954;-44
2023/07/07 05:59:46;;;;;;;7.50;5.90;;;;;;;24.36;53.58;99162.21;434013;1258;110655;-43
2023/07/07 06:19:57;;;;;;;15.70;5.80;;;;;;;27.09;51.75;99181.92;433895;1261;97868;-42
2023/07/07 06:30:03;;;;;;;20.70;7.20;;;;;;;26.92;49.81;99190.80;434042;1261;109939;-43
2023/07/07 06:40:12;;;;;;;16.80;4.90;;;;;;;26.78;49.04;99201.83;434052;1260;107914;-42
2023/07/07 06:50:21;;;;;;;8.00;5.10;;;;;;;26.87;47.02;99208.04;434059;1261;98064;-43
2023/07/07 07:00:31;;;;;;;4.50;3.80;;;;;;;26.97;46.32;99207.64;434259;1260;108900;-42
2023/07/07 07:10:38;;;;;;;4.10;3.20;;;;;;;26.96;45.60;99212.33;434234;1260;97887;-41
2023/07/07 07:20:43;;;;;;;5.50;3.10;;;;;;;27.13;44.25;99218.17;433975;1259;110512;-43
2023/07/07 07:30:50;;;;;;;7.20;3.60;;;;;;;26.85;43.96;99230.06;434030;1258;108639;-42
2023/07/07 07:40:57;;;;;;;5.40;2.80;;;;;;;27.24;42.68;99233.04;433957;1261;97462;-43
2023/07/07 07:51:04;;;;;;;5.80;2.90;;;;;;;27.03;41.03;99231.59;434070;1258;108585;-41
2023/07/07 08:01:30;;;;;;;4.10;2.70;;;;;;;26.57;40.11;99233.95;434108;1261;97214;-45
2023/07/07 08:22:00;;;;;;;6.30;2.30;;;;;;;26.84;38.56;99233.96;433822;1260;107342;-43
2023/07/07 08:32:08;;;;;;;3.10;2.30;;;;;;;27.23;38.44;99234.77;433969;1256;97095;-42
2023/07/07 08:42:22;;;;;;;5.10;2.90;;;;;;;27.48;36.26;99243.41;434104;1260;107672;-43
2023/07/07 08:52:32;;;;;;;15.40;4.00;;;;;;;26.68;35.81;99247.96;434048;1261;97857;-41
2023/07/07 09:03:02;;;;;;;5.20;2.90;;;;;;;26.15;37.03;99250.45;434138;1261;109765;-43
2023/07/07 09:13:10;;;;;;;5.90;2.30;;;;;;;26.79;36.42;99249.33;434115;1261;108443;-41
2023/07/07 09:23:18;;;;;;;6.80;2.20;;;;;;;25.89;36.13;99259.23;433889;1261;97883;-41
2023/07/07 09:33:27;;;;;;;7.00;2.70;;;;;;;25.66;35.92;99262.08;434143;1260;110669;-41
2023/07/07 09:43:32;;;;;;;5.50;1.50;;;;;;;25.38;35.11;99260.02;434077;1258;107535;-41
2023/07/07 09:53:56;;;;;;;5.70;2.40;;;;;;;26.58;35.73;99258.23;434072;1260;97166;-42
2023/07/07 10:04:04;;;;;;;4.00;1.80;;;;;;;26.52;34.38;99263.04;433995;1271;110647;-42
2023/07/07 10:14:12;;;;;;;2.70;1.60;;;;;;;25.82;35.33;99267.79;433954;1260;109971;-41
2023/07/07 10:24:20;;;;;;;1.50;1.40;;;;;;;26.43;35.08;99262.28;434188;1260;97922;-40
2023/07/07 10:34:27;;;;;;;4.00;2.30;;;;;;;26.33;33.88;99264.85;434033;1260;111140;-42
2023/07/07 10:44:34;;;;;;;5.30;2.30;;;;;;;26.08;34.48;99267.48;433987;1261;108435;-41
2023/07/07 10:54:45;;;;;;;2.50;1.90;;;;;;;26.11;34.29;99257.39;434140;1260;97780;-42
2023/07/07 11:05:06;;;;;;;6.80;2.10;;;;;;;26.58;34.29;99249.73;434046;1261;110246;-42
2023/07/07 11:15:16;;;;;;;4.70;2.40;;;;;;;26.17;34.24;99257.05;433898;1257;108405;-41
2023/07/07 11:25:29;;;;;;;7.00;2.90;;;;;;;25.47;35.42;99268.41;433908;1260;96601;-43
2023/07/07 11:35:39;;;;;;;5.30;2.30;;;;;;;25.52;35.90;99265.24;434057;1258;109179;-40
2023/07/07 11:45:46;;;;;;;4.10;2.40;;;;;;;26.28;34.97;99254.88;434126;1261;107487;-41
2023/07/07 11:55:57;;;;;;;4.20;2.60;;;;;;;26.33;34.85;99246.05;434022;1271;98045;-41
2023/07/07 12:16:12;;;;;;;2.60;2.10;;;;;;;26.35;34.87;99235.27;433747;1260;425642;-43
2023/07/07 12:26:26;;;;;;;5.00;2.90;;;;;;;26.13;34.75;99234.82;434002;1257;111564;-41
2023/07/07 12:36:30;;;;;;;3.60;2.30;;;;;;;26.25;34.85;99221.19;434044;1261;107185;-44
2023/07/07 12:46:39;;;;;;;5.10;2.50;;;;;;;26.39;34.55;99215.46;434003;1262;97695;-42
2023/07/07 12:56:58;;;;;;;2.50;2.00;;;;;;;26.62;34.69;99206.96;433998;1271;111132;-41
2023/07/07 13:17:10;;;;;;;2.80;2.10;;;;;;;26.22;33.67;99204.41;434039;1270;97585;-42
2023/07/07 13:27:23;;;;;;;12.30;2.00;;;;;;;25.85;34.18;99210.75;433963;1260;111539;-42
2023/07/07 13:37:30;;;;;;;3.70;2.10;;;;;;;25.91;34.07;99208.34;433883;1260;107340;-44
2023/07/07 13:47:39;;;;;;;3.10;1.80;;;;;;;26.10;33.57;99200.59;433961;1270;97161;-40
2023/07/07 13:57:47;;;;;;;6.20;2.10;;;;;;;26.43;33.49;99197.75;433895;1257;109606;-41
2023/07/07 14:07:53;;;;;;;6.60;2.10;;;;;;;26.82;32.98;99195.40;433950;1261;109319;-41
2023/07/07 14:18:05;;;;;;;2.10;1.90;;;;;;;26.51;32.93;99197.25;433860;1257;97919;-42
2023/07/07 14:28:13;;;;;;;4.00;2.20;;;;;;;26.59;32.91;99191.27;433795;1260;110486;-42
2023/07/07 14:48:42;;;;;;;2.00;1.80;;;;;;;26.49;33.06;99186.43;433979;1260;96650;-42
2023/07/07 14:58:55;;;;;;;2.60;2.00;;;;;;;26.23;32.67;99184.77;433854;1261;111078;-42
2023/07/07 15:09:05;;;;;;;2.50;1.90;;;;;;;25.67;33.21;99178.25;434004;1261;108499;-43
2023/07/07 15:19:23;;;;;;;2.30;2.00;;;;;;;25.62;33.65;99172.66;434099;1260;117797;-42
2023/07/07 15:29:31;;;;;;;3.80;2.30;;;;;;;25.85;33.37;99165.23;434050;1257;109648;-41
2023/07/07 15:39:40;;;;;;;2.20;1.80;;;;;;;26.11;33.06;99162.32;434029;1260;97850;-41
2023/07/07 15:49:47;;;;;;;4.00;2.30;;;;;;;26.02;32.14;99167.19;433881;1261;110539;-41
2023/07/07 15:59:54;;;;;;;7.10;2.00;;;;;;;25.96;32.06;99161.16;433969;1256;108524;-41
2023/07/07 16:10:01;;;;;;;8.80;2.50;;;;;;;25.92;32.23;99159.11;433974;1260;96682;-42
2023/07/07 16:20:11;;;;;;;2.40;1.80;;;;;;;25.79;32.52;99162.27;433909;1261;109437;-42
2023/07/07 16:40:26;;;;;;;1.70;1.60;;;;;;;25.63;32.32;99167.39;433958;1257;96597;-42
2023/07/07 16:50:32;;;;;;;1.60;1.50;;;;;;;25.47;32.45;99165.83;434022;1261;110560;-42
2023/07/07 17:10:48;;;;;;;4.00;2.30;;;;;;;25.12;32.62;99173.42;434153;1257;96659;-41
2023/07/07 17:20:56;;;;;;;2.10;1.80;;;;;;;24.97;32.71;99181.01;433853;1258;110419;-43
2023/07/07 17:31:03;;;;;;;4.50;2.30;;;;;;;24.78;33.22;99180.45;433672;1257;108676;-45
2023/07/07 17:41:09;;;;;;;13.30;2.30;;;;;;;24.61;33.46;99179.80;433723;1257;97224;-43
2023/07/07 17:51:16;;;;;;;4.30;1.70;;;;;;;24.44;34.10;99191.02;433803;1261;110668;-44
2023/07/07 18:01:22;;;;;;;;;;;;;;;24.22;34.77;99195.09;433706;1260;108541;-42
2023/07/07 18:11:29;;;;;;;4.40;2.20;;;;;;;23.92;35.15;99196.68;433728;1258;97952;-42
2023/07/07 18:21:36;;;;;;;5.20;3.00;;;;;;;23.58;36.07;99193.60;433778;1257;110548;-44
2023/07/07 18:32:00;;;;;;;8.80;2.30;;;;;;;23.04;37.27;99199.20;433724;1260;108536;-43
2023/07/07 18:42:08;;;;;;;4.20;2.40;;;;;;;22.42;38.43;99205.50;433636;1260;97951;-43
2023/07/07 18:52:16;;;;;;;13.60;4.30;;;;;;;21.69;40.01;99209.02;433822;1258;109641;-41
2023/07/07 19:02:23;;;;;;;7.90;4.20;;;;;;;21.05;41.45;99214.77;433794;1257;108558;-43
2023/07/07 19:12:30;;;;;;;8.40;4.20;;;;;;;20.44;42.89;99212.41;433813;1256;96643;-42
2023/07/07 19:22:38;;;;;;;11.30;5.30;;;;;;;19.92;44.18;99214.55;433828;1260;109613;-42
2023/07/07 19:32:43;;;;;;;13.90;5.00;;;;;;;19.39;45.18;99213.23;433715;1260;108760;-42
2023/07/07 19:42:50;;;;;;;10.60;5.80;;;;;;;18.97;46.48;99210.80;433823;1257;98002;-43
2023/07/07 19:52:58;;;;;;;16.30;8.90;;;;;;;18.61;47.24;99209.08;433940;1257;110838;-42
2023/07/07 20:13:11;;;;;;;21.60;11.00;;;;;;;17.87;49.00;99207.03;433865;1258;97918;-42
2023/07/07 20:23:18;;;;;;;23.30;12.50;;;;;;;17.66;49.72;99215.77;433829;1260;109398;-41
2023/07/07 20:33:24;;;;;;;21.90;12.20;;;;;;;17.39;50.47;99221.93;433659;1261;107697;-46
2023/07/07 20:53:35;;;;;;;13.30;9.30;;;;;;;16.96;52.03;99237.31;433738;1261;107707;-42
2023/07/07 21:03:43;;;;;;;15.90;10.70;;;;;;;16.82;52.60;99248.02;433717;1257;97902;-43
2023/07/07 21:13:49;;;;;;;18.80;11.80;;;;;;;16.70;53.22;99255.85;434012;1260;109666;-43
2023/07/07 21:23:58;;;;;;;23.70;11.50;;;;;;;16.51;53.75;99259.66;433505;1257;107835;-43
2023/07/07 21:44:12;;;;;;;18.20;11.30;;;;;;;16.22;54.87;99265.52;433774;1258;110788;-43
2023/07/07 21:54:20;;;;;;;13.40;9.80;;;;;;;16.18;55.39;99268.77;433668;1261;108378;-42
2023/07/07 22:04:25;;;;;;;22.80;11.10;;;;;;;16.11;56.05;99270.77;433805;1261;96669;-43
2023/07/07 22:14:33;;;;;;;24.70;14.60;;;;;;;16.05;56.60;99271.66;434086;1257;110732;-43
2023/07/07 22:24:40;;;;;;;28.90;17.60;;;;;;;15.93;56.94;99266.78;433872;1258;107039;-43
2023/07/07 22:34:47;;;;;;;25.30;15.00;;;;;;;15.90;57.78;99261.05;433737;1256;97930;-43
2023/07/07 22:44:54;;;;;;;21.60;14.00;;;;;;;15.90;58.21;99268.50;433610;1261;111705;-43
2023/07/07 22:55:01;;;;;;;29.90;16.60;;;;;;;15.62;58.84;99266.45;433737;1257;108738;-42
2023/07/07 23:05:08;;;;;;;26.00;17.00;;;;;;;15.47;59.44;99259.07;433787;1259;97790;-42
2023/07/07 23:15:18;;;;;;;26.60;16.50;;;;;;;15.26;60.20;99249.50;433829;1261;109855;-42
2023/07/07 23:25:32;;;;;;;34.80;22.60;;;;;;;15.34;60.91;99249.93;433721;1261;107307;-43
2023/07/07 23:35:39;;;;;;;38.50;26.20;;;;;;;15.24;61.19;99249.31;433758;1257;118547;-42
2023/07/07 23:45:47;;;;;;;45.80;24.30;;;;;;;14.96;61.66;99245.02;433892;1261;110835;-42
2023/07/07 23:55:55;;;;;;;34.50;18.60;;;;;;;14.90;61.92;99238.58;433725;1256;97835;-44
